sensor_id;sensor_type;location;lat;lon;timestamp;temperature;humidity
10441;DHT22;5268;49.346;9.522;2022-07-25T03:24:54;20.10;87.20
10441;DHT22;5268;49.346;9.522;2022-07-25T03:29:56;20.00;85.60
10441;DHT22;5268;49.346;9.522;2022-07-25T03:34:58;20.00;87.20
10441;DHT22;5268;49.346;9.522;2022-07-25T03:40:01;19.90;87.80
10441;DHT22;5268;49.346;9.522;2022-07-25T03:45:04;19.90;87.40
10441;DHT22;5268;49.346;9.522;2022-07-25T03:50:06;19.80;85.80
10441;DHT22;5268;49.346;9.522;2022-07-25T03:55:10;19.80;88.00
10441;DHT22;5268;49.346;9.522;2022-07-25T04:00:13;19.80;87.00
10441;DHT22;5268;49.346;9.522;2022-07-25T04:05:14;19.70;87.90
10441;DHT22;5268;49.346;9.522;2022-07-25T04:10:18;19.70;90.50
10441;DHT22;5268;49.346;9.522;2022-07-25T04:15:20;19.70;89.90
10441;DHT22;5268;49.346;9.522;2022-07-25T04:20:22;19.60;90.80
10441;DHT22;5268;49.346;9.522;2022-07-25T04:25:25;19.60;88.30
10441;DHT22;5268;49.346;9.522;2022-07-25T04:30:27;19.70;89.30
10441;DHT22;5268;49.346;9.522;2022-07-25T04:35:29;19.70;88.60
10441;DHT22;5268;49.346;9.522;2022-07-25T04:40:32;19.70;88.80
10441;DHT22;5268;49.346;9.522;2022-07-25T04:45:35;19.70;88.70
10441;DHT22;5268;49.346;9.522;2022-07-25T04:50:37;19.80;89.80
10441;DHT22;5268;49.346;9.522;2022-07-25T04:55:40;19.80;88.90
10441;DHT22;5268;49.346;9.522;2022-07-25T05:00:42;19.90;87.20
10441;DHT22;5268;49.346;9.522;2022-07-25T05:05:44;19.80;91.30
10441;DHT22;5268;49.346;9.522;2022-07-25T05:10:47;19.90;89.10
10441;DHT22;5268;49.346;9.522;2022-07-25T05:15:49;20.00;90.10
10441;DHT22;5268;49.346;9.522;2022-07-25T05:20:51;20.10;90.10
10441;DHT22;5268;49.346;9.522;2022-07-25T05:25:55;20.20;89.00
10441;DHT22;5268;49.346;9.522;2022-07-25T05:30:57;20.50;90.20
10441;DHT22;5268;49.346;9.522;2022-07-25T05:35:59;21.20;90.80
10441;DHT22;5268;49.346;9.522;2022-07-25T05:41:04;22.00;90.30
10441;DHT22;5268;49.346;9.522;2022-07-25T05:46:06;22.70;89.80
10441;DHT22;5268;49.346;9.522;2022-07-25T05:51:08;23.10;89.00
10441;DHT22;5268;49.346;9.522;2022-07-25T05:56:12;23.20;90.70
10441;DHT22;5268;49.346;9.522;2022-07-25T06:01:14;23.10;89.60
10441;DHT22;5268;49.346;9.522;2022-07-25T06:06:17;23.20;90.00
10441;DHT22;5268;49.346;9.522;2022-07-25T06:11:20;23.40;90.20
10441;DHT22;5268;49.346;9.522;2022-07-25T06:16:22;23.60;90.10
10441;DHT22;5268;49.346;9.522;2022-07-25T06:21:24;23.90;89.80
10441;DHT22;5268;49.346;9.522;2022-07-25T06:26:28;24.10;89.40
10441;DHT22;5268;49.346;9.522;2022-07-25T06:31:30;24.40;88.90
10441;DHT22;5268;49.346;9.522;2022-07-25T06:36:32;24.70;88.70
10441;DHT22;5268;49.346;9.522;2022-07-25T06:41:35;25.00;89.30
10441;DHT22;5268;49.346;9.522;2022-07-25T06:46:37;25.30;88.90
10441;DHT22;5268;49.346;9.522;2022-07-25T06:51:39;25.70;89.50
10441;DHT22;5268;49.346;9.522;2022-07-25T06:56:42;26.10;88.70
10441;DHT22;5268;49.346;9.522;2022-07-25T07:01:44;26.40;88.90
10441;DHT22;5268;49.346;9.522;2022-07-25T07:06:46;26.90;88.90
10441;DHT22;5268;49.346;9.522;2022-07-25T07:11:49;27.30;88.70
10441;DHT22;5268;49.346;9.522;2022-07-25T07:16:51;27.80;88.80
10441;DHT22;5268;49.346;9.522;2022-07-25T07:21:53;28.20;88.60
10441;DHT22;5268;49.346;9.522;2022-07-25T07:26:57;28.60;88.50
10441;DHT22;5268;49.346;9.522;2022-07-25T07:31:59;29.00;89.10
10441;DHT22;5268;49.346;9.522;2022-07-25T07:37:01;29.50;88.50
10441;DHT22;5268;49.346;9.522;2022-07-25T07:42:04;29.90;88.20
10441;DHT22;5268;49.346;9.522;2022-07-25T07:47:06;30.30;87.60
10441;DHT22;5268;49.346;9.522;2022-07-25T07:52:08;30.70;87.30
10441;DHT22;5268;49.346;9.522;2022-07-25T07:57:11;31.10;87.20
10441;DHT22;5268;49.346;9.522;2022-07-25T08:02:13;31.50;87.20
10441;DHT22;5268;49.346;9.522;2022-07-25T08:07:15;31.80;85.10
10441;DHT22;5268;49.346;9.522;2022-07-25T08:12:19;32.00;85.40
10441;DHT22;5268;49.346;9.522;2022-07-25T08:17:21;32.20;84.70
10441;DHT22;5268;49.346;9.522;2022-07-25T08:22:23;32.60;84.80
10441;DHT22;5268;49.346;9.522;2022-07-25T08:27:26;32.90;84.00
10441;DHT22;5268;49.346;9.522;2022-07-25T08:32:28;33.10;83.20
10441;DHT22;5268;49.346;9.522;2022-07-25T08:37:30;33.30;81.20
10441;DHT22;5268;49.346;9.522;2022-07-25T08:42:33;33.30;81.20
10441;DHT22;5268;49.346;9.522;2022-07-25T08:47:36;33.30;80.60
10441;DHT22;5268;49.346;9.522;2022-07-25T08:52:38;33.60;80.70
10441;DHT22;5268;49.346;9.522;2022-07-25T08:57:42;33.40;74.90
10441;DHT22;5268;49.346;9.522;2022-07-25T09:02:50;33.80;78.00
10441;DHT22;5268;49.346;9.522;2022-07-25T09:07:53;34.00;77.10
10441;DHT22;5268;49.346;9.522;2022-07-25T09:12:58;34.20;76.30
10441;DHT22;5268;49.346;9.522;2022-07-25T09:18:03;34.30;74.70
10441;DHT22;5268;49.346;9.522;2022-07-25T09:23:05;34.40;72.70
10441;DHT22;5268;49.346;9.522;2022-07-25T09:28:16;34.70;74.80
10441;DHT22;5268;49.346;9.522;2022-07-25T09:33:18;34.90;69.80
10441;DHT22;5268;49.346;9.522;2022-07-25T09:38:21;35.10;74.90
10441;DHT22;5268;49.346;9.522;2022-07-25T09:43:34;34.90;67.70
10441;DHT22;5268;49.346;9.522;2022-07-25T09:48:38;35.20;72.10
10441;DHT22;5268;49.346;9.522;2022-07-25T09:53:40;35.40;72.10
10441;DHT22;5268;49.346;9.522;2022-07-25T09:58:44;35.60;73.00
10441;DHT22;5268;49.346;9.522;2022-07-25T10:03:50;35.80;70.80
10441;DHT22;5268;49.346;9.522;2022-07-25T10:08:53;36.00;72.50
10441;DHT22;5268;49.346;9.522;2022-07-25T10:13:56;36.00;67.00
10441;DHT22;5268;49.346;9.522;2022-07-25T10:18:58;36.00;69.70
10441;DHT22;5268;49.346;9.522;2022-07-25T10:24:02;36.10;70.00
10441;DHT22;5268;49.346;9.522;2022-07-25T10:29:08;36.20;70.10
10441;DHT22;5268;49.346;9.522;2022-07-25T10:34:11;36.40;68.10
10441;DHT22;5268;49.346;9.522;2022-07-25T10:39:15;36.60;70.10
10441;DHT22;5268;49.346;9.522;2022-07-25T10:44:18;36.70;70.00
10441;DHT22;5268;49.346;9.522;2022-07-25T10:49:22;36.90;69.20
10441;DHT22;5268;49.346;9.522;2022-07-25T10:54:30;37.00;67.90
10441;DHT22;5268;49.346;9.522;2022-07-25T10:59:35;37.00;66.00
10441;DHT22;5268;49.346;9.522;2022-07-25T11:04:37;36.90;64.50
10441;DHT22;5268;49.346;9.522;2022-07-25T11:09:40;36.90;67.50
10441;DHT22;5268;49.346;9.522;2022-07-25T11:14:43;37.00;65.10
10441;DHT22;5268;49.346;9.522;2022-07-25T11:19:53;37.10;65.20
10441;DHT22;5268;49.346;9.522;2022-07-25T11:24:56;37.20;65.20
10441;DHT22;5268;49.346;9.522;2022-07-25T11:30:06;37.10;59.40
10441;DHT22;5268;49.346;9.522;2022-07-25T11:35:09;37.20;61.60
10441;DHT22;5268;49.346;9.522;2022-07-25T11:40:11;37.20;64.00
10441;DHT22;5268;49.346;9.522;2022-07-25T11:45:18;37.40;58.40
10441;DHT22;5268;49.346;9.522;2022-07-25T11:50:28;37.50;58.50
10441;DHT22;5268;49.346;9.522;2022-07-25T11:55:32;37.20;58.40
10441;DHT22;5268;49.346;9.522;2022-07-25T12:00:39;37.20;60.50
10441;DHT22;5268;49.346;9.522;2022-07-25T12:05:41;37.00;56.90
10441;DHT22;5268;49.346;9.522;2022-07-25T12:10:44;36.80;58.50
10441;DHT22;5268;49.346;9.522;2022-07-25T12:15:49;36.50;58.90
10441;DHT22;5268;49.346;9.522;2022-07-25T12:20:51;36.20;59.60
10441;DHT22;5268;49.346;9.522;2022-07-25T12:25:53;36.10;60.00
10441;DHT22;5268;49.346;9.522;2022-07-25T12:30:57;36.00;60.00
10441;DHT22;5268;49.346;9.522;2022-07-25T12:35:59;36.10;61.90
10441;DHT22;5268;49.346;9.522;2022-07-25T12:41:01;36.40;60.80
10441;DHT22;5268;49.346;9.522;2022-07-25T12:46:04;36.70;61.20
10441;DHT22;5268;49.346;9.522;2022-07-25T12:51:06;37.00;60.00
10441;DHT22;5268;49.346;9.522;2022-07-25T12:56:09;37.20;59.50
10441;DHT22;5268;49.346;9.522;2022-07-25T13:01:12;37.30;57.40
10441;DHT22;5268;49.346;9.522;2022-07-25T13:06:14;37.40;58.00
10441;DHT22;5268;49.346;9.522;2022-07-25T13:11:18;37.30;57.20
10441;DHT22;5268;49.346;9.522;2022-07-25T13:16:21;37.20;56.70
10441;DHT22;5268;49.346;9.522;2022-07-25T13:21:23;37.10;56.50
10441;DHT22;5268;49.346;9.522;2022-07-25T13:26:25;37.00;56.40
10441;DHT22;5268;49.346;9.522;2022-07-25T13:31:29;36.90;54.60
10441;DHT22;5268;49.346;9.522;2022-07-25T13:36:31;36.70;55.60
10441;DHT22;5268;49.346;9.522;2022-07-25T13:41:33;36.60;56.20
10441;DHT22;5268;49.346;9.522;2022-07-25T13:46:37;36.60;57.80
10441;DHT22;5268;49.346;9.522;2022-07-25T13:51:38;36.60;56.80
10441;DHT22;5268;49.346;9.522;2022-07-25T13:56:41;36.40;56.10
10441;DHT22;5268;49.346;9.522;2022-07-25T14:01:44;36.30;57.00
10441;DHT22;5268;49.346;9.522;2022-07-25T14:06:46;36.10;57.50
10441;DHT22;5268;49.346;9.522;2022-07-25T14:11:51;36.00;57.70
10441;DHT22;5268;49.346;9.522;2022-07-25T14:16:55;35.80;55.90
10441;DHT22;5268;49.346;9.522;2022-07-25T14:21:56;35.80;57.60
10441;DHT22;5268;49.346;9.522;2022-07-25T14:26:59;35.80;56.20
10441;DHT22;5268;49.346;9.522;2022-07-25T14:32:03;35.70;57.70
10441;DHT22;5268;49.346;9.522;2022-07-25T14:37:07;35.40;56.10
10441;DHT22;5268;49.346;9.522;2022-07-25T14:42:08;35.10;57.40
10441;DHT22;5268;49.346;9.522;2022-07-25T14:47:12;35.10;58.40
10441;DHT22;5268;49.346;9.522;2022-07-25T14:52:14;35.10;58.20
10441;DHT22;5268;49.346;9.522;2022-07-25T14:57:16;35.20;59.50
10441;DHT22;5268;49.346;9.522;2022-07-25T15:02:19;35.20;59.10
10441;DHT22;5268;49.346;9.522;2022-07-25T15:07:21;35.30;59.00
10441;DHT22;5268;49.346;9.522;2022-07-25T15:12:23;35.20;58.40
10441;DHT22;5268;49.346;9.522;2022-07-25T15:17:27;35.00;59.00
10441;DHT22;5268;49.346;9.522;2022-07-25T15:22:29;34.80;59.60
10441;DHT22;5268;49.346;9.522;2022-07-25T15:27:31;34.60;59.10
10441;DHT22;5268;49.346;9.522;2022-07-25T15:32:35;34.50;59.90
10441;DHT22;5268;49.346;9.522;2022-07-25T15:37:38;34.40;60.40
10441;DHT22;5268;49.346;9.522;2022-07-25T15:42:40;34.30;59.90
10441;DHT22;5268;49.346;9.522;2022-07-25T15:47:45;34.20;60.30
10441;DHT22;5268;49.346;9.522;2022-07-25T15:52:46;34.10;60.30
10441;DHT22;5268;49.346;9.522;2022-07-25T15:57:50;34.00;60.50
10441;DHT22;5268;49.346;9.522;2022-07-25T16:02:54;33.90;60.80
10441;DHT22;5268;49.346;9.522;2022-07-25T16:07:56;33.90;61.80
10441;DHT22;5268;49.346;9.522;2022-07-25T16:12:59;33.90;62.10
10441;DHT22;5268;49.346;9.522;2022-07-25T16:18:03;33.90;62.40
10441;DHT22;5268;49.346;9.522;2022-07-25T16:23:05;33.90;62.70
10441;DHT22;5268;49.346;9.522;2022-07-25T16:28:07;33.90;62.80
10441;DHT22;5268;49.346;9.522;2022-07-25T16:33:10;33.90;63.10
10441;DHT22;5268;49.346;9.522;2022-07-25T16:38:12;33.90;63.30
10441;DHT22;5268;49.346;9.522;2022-07-25T16:43:14;33.90;63.50
10441;DHT22;5268;49.346;9.522;2022-07-25T16:48:17;34.00;63.60
10441;DHT22;5268;49.346;9.522;2022-07-25T16:53:19;33.90;63.40
10441;DHT22;5268;49.346;9.522;2022-07-25T16:58:22;33.90;63.60
10441;DHT22;5268;49.346;9.522;2022-07-25T17:03:26;33.80;63.60
10441;DHT22;5268;49.346;9.522;2022-07-25T17:08:28;33.80;63.50
10441;DHT22;5268;49.346;9.522;2022-07-25T17:13:31;33.70;63.10
10441;DHT22;5268;49.346;9.522;2022-07-25T17:18:34;33.50;62.70
10441;DHT22;5268;49.346;9.522;2022-07-25T17:23:36;33.40;62.70
10441;DHT22;5268;49.346;9.522;2022-07-25T17:28:39;33.40;62.40
10441;DHT22;5268;49.346;9.522;2022-07-25T17:33:42;33.30;62.00
10441;DHT22;5268;49.346;9.522;2022-07-25T17:38:44;33.20;62.30
10441;DHT22;5268;49.346;9.522;2022-07-25T17:43:46;33.10;62.40
10441;DHT22;5268;49.346;9.522;2022-07-25T17:48:50;33.00;62.60
10441;DHT22;5268;49.346;9.522;2022-07-25T17:53:52;32.90;62.60
10441;DHT22;5268;49.346;9.522;2022-07-25T17:58:54;32.90;62.30
10441;DHT22;5268;49.346;9.522;2022-07-25T18:03:57;32.70;62.10
10441;DHT22;5268;49.346;9.522;2022-07-25T18:08:59;32.60;62.00
10441;DHT22;5268;49.346;9.522;2022-07-25T18:14:01;32.50;62.10
10441;DHT22;5268;49.346;9.522;2022-07-25T18:19:05;32.30;62.10
10441;DHT22;5268;49.346;9.522;2022-07-25T18:24:07;32.20;62.40
10441;DHT22;5268;49.346;9.522;2022-07-25T18:29:09;32.10;62.70
10441;DHT22;5268;49.346;9.522;2022-07-25T18:34:12;31.90;62.70
10441;DHT22;5268;49.346;9.522;2022-07-25T18:39:14;31.70;62.80
10441;DHT22;5268;49.346;9.522;2022-07-25T18:44:18;31.50;62.70
10441;DHT22;5268;49.346;9.522;2022-07-25T18:49:21;31.20;62.60
10441;DHT22;5268;49.346;9.522;2022-07-25T18:54:23;31.00;62.50
10441;DHT22;5268;49.346;9.522;2022-07-25T18:59:25;30.70;62.40
10441;DHT22;5268;49.346;9.522;2022-07-25T19:04:29;30.60;62.70
10441;DHT22;5268;49.346;9.522;2022-07-25T19:09:31;30.50;62.70
10441;DHT22;5268;49.346;9.522;2022-07-25T19:14:33;30.30;62.50
10441;DHT22;5268;49.346;9.522;2022-07-25T19:19:36;30.20;62.20
10441;DHT22;5268;49.346;9.522;2022-07-25T19:24:38;30.00;62.10
10441;DHT22;5268;49.346;9.522;2022-07-25T19:29:41;29.90;62.00
10441;DHT22;5268;49.346;9.522;2022-07-25T19:34:45;29.70;61.80
10441;DHT22;5268;49.346;9.522;2022-07-25T19:39:47;29.60;61.60
10441;DHT22;5268;49.346;9.522;2022-07-25T19:44:49;29.50;61.60
10441;DHT22;5268;49.346;9.522;2022-07-25T19:49:52;29.30;61.60
10441;DHT22;5268;49.346;9.522;2022-07-25T19:54:54;29.20;61.70
10441;DHT22;5268;49.346;9.522;2022-07-25T19:59:57;29.10;61.80
10441;DHT22;5268;49.346;9.522;2022-07-25T20:05:01;28.90;61.70
10441;DHT22;5268;49.346;9.522;2022-07-25T20:10:04;28.80;62.50
10441;DHT22;5268;49.346;9.522;2022-07-25T20:15:06;28.70;61.70
10441;DHT22;5268;49.346;9.522;2022-07-25T20:20:10;28.60;61.80
10441;DHT22;5268;49.346;9.522;2022-07-25T20:25:13;28.50;61.80
10441;DHT22;5268;49.346;9.522;2022-07-25T20:30:15;28.30;62.60
10441;DHT22;5268;49.346;9.522;2022-07-25T20:35:19;28.20;61.90
10441;DHT22;5268;49.346;9.522;2022-07-25T20:40:21;28.10;61.80
10441;DHT22;5268;49.346;9.522;2022-07-25T20:45:23;28.10;62.40
10441;DHT22;5268;49.346;9.522;2022-07-25T20:50:26;28.00;62.50
10441;DHT22;5268;49.346;9.522;2022-07-25T20:55:28;27.80;62.30
10441;DHT22;5268;49.346;9.522;2022-07-25T21:00:31;27.70;62.20
10441;DHT22;5268;49.346;9.522;2022-07-25T21:05:34;27.60;62.40
10441;DHT22;5268;49.346;9.522;2022-07-25T21:10:38;27.50;62.70
10441;DHT22;5268;49.346;9.522;2022-07-25T21:15:40;27.40;62.60
10441;DHT22;5268;49.346;9.522;2022-07-25T21:20:45;27.30;62.50
10441;DHT22;5268;49.346;9.522;2022-07-25T21:25:47;27.20;62.50
